馬祖北竿航空站 - ATIS

METAR RCMT 161100Z 05013KT 9999 SCT015 BKN025 16/10 Q1023 NOSIG RMK A3021(Y)=

站台狀態:Online
最後更新:2018-12-16 22:30:01